Time;durP1;ratioP1;P1;durP2;ratioP2;P2;SDS_P1;SDS_P2;PMS_P1;PMS_P2;Temp;Humidity;BMP_temperature;BMP_pressure;BME280_temperature;BME280_humidity;BME280_pressure;Samples;Min_cycle;Max_cycle;Signal;HPM_P1;HPM_P2
2022/03/27 00:00:09;;;;;;;38.10;16.00;;;6.00;72.40;;;;;;5064622;28;20996;-45
2022/03/27 00:02:38;;;;;;;35.20;15.53;;;6.00;72.00;;;;;;5068751;28;20471;-45
2022/03/27 00:05:06;;;;;;;35.03;17.27;;;6.00;71.90;;;;;;5064821;28;20984;-45
2022/03/27 00:07:32;;;;;;;31.67;16.33;;;6.00;72.10;;;;;;5067525;28;20481;-45
2022/03/27 00:09:59;;;;;;;24.00;14.70;;;5.90;71.70;;;;;;5066581;28;20497;-45
2022/03/27 00:12:26;;;;;;;30.07;15.87;;;5.90;71.60;;;;;;5067602;28;20488;-45
2022/03/27 00:14:53;;;;;;;29.23;15.60;;;;;;;;;;5063344;28;20477;-45
2022/03/27 00:17:19;;;;;;;30.90;14.10;;;5.70;71.90;;;;;;5064952;28;21116;-45
2022/03/27 00:19:48;;;;;;;28.93;16.27;;;5.70;71.70;;;;;;5069784;28;21255;-45
2022/03/27 00:22:15;;;;;;;32.17;15.97;;;5.60;72.00;;;;;;5066269;28;20480;-45
2022/03/27 00:24:42;;;;;;;38.43;15.17;;;5.40;72.90;;;;;;5064585;28;20560;-45
2022/03/27 00:27:09;;;;;;;34.10;16.30;;;5.20;73.10;;;;;;5067350;28;20488;-45
2022/03/27 00:29:36;;;;;;;41.13;14.53;;;5.20;73.20;;;;;;5067837;28;21131;-45
2022/03/27 00:32:03;;;;;;;31.27;16.20;;;5.10;74.20;;;;;;5067473;28;20843;-45
2022/03/27 00:34:30;;;;;;;34.20;17.70;;;5.10;74.30;;;;;;5065461;28;20818;-45
2022/03/27 00:36:58;;;;;;;31.83;17.63;;;5.20;74.00;;;;;;5056564;28;20487;-45
2022/03/27 00:39:25;;;;;;;38.67;17.33;;;5.20;74.20;;;;;;5065452;28;20908;-44
2022/03/27 00:41:52;;;;;;;32.77;17.07;;;5.20;73.90;;;;;;5069291;28;20484;-45
2022/03/27 00:44:19;;;;;;;28.67;14.87;;;5.30;73.20;;;;;;5063490;28;20865;-45
2022/03/27 00:46:45;;;;;;;36.47;16.03;;;5.30;72.60;;;;;;5053984;28;20503;-44
2022/03/27 00:49:12;;;;;;;30.70;15.07;;;5.30;72.40;;;;;;5065705;28;21473;-45
2022/03/27 00:51:39;;;;;;;25.63;12.83;;;5.10;73.40;;;;;;5068732;28;20503;-45
2022/03/27 00:54:07;;;;;;;36.30;14.30;;;4.90;73.50;;;;;;5065752;28;20907;-44
2022/03/27 00:56:33;;;;;;;31.60;15.10;;;4.50;74.40;;;;;;5065763;28;20500;-45
2022/03/27 00:59:00;;;;;;;26.87;14.97;;;4.30;77.00;;;;;;5066228;28;20473;-45
2022/03/27 01:01:35;;;;;;;31.17;17.47;;;4.20;79.00;;;;;;5063590;28;20485;-45
2022/03/27 01:04:02;;;;;;;32.43;16.47;;;4.20;79.40;;;;;;5037013;28;20866;-44
2022/03/27 01:06:33;;;;;;;30.80;14.83;;;4.40;78.80;;;;;;5067572;28;20478;-45
2022/03/27 01:11:47;;;;;;;37.00;15.93;;;4.70;76.90;;;;;;5039582;28;20478;-45
2022/03/27 01:14:18;;;;;;;28.90;13.50;;;4.80;76.40;;;;;;5063333;28;21701;-44
2022/03/27 01:16:47;;;;;;;34.43;16.50;;;4.80;75.90;;;;;;5061882;28;20484;-44
2022/03/27 01:19:15;;;;;;;34.00;14.13;;;4.90;75.90;;;;;;5057275;28;20509;-44
2022/03/27 01:21:46;;;;;;;25.37;14.17;;;5.00;75.60;;;;;;5063159;28;20514;-45
2022/03/27 01:24:14;;;;;;;25.87;15.27;;;5.00;75.30;;;;;;5061248;28;20483;-44
2022/03/27 01:26:41;;;;;;;30.40;14.93;;;5.00;75.80;;;;;;5045019;28;20558;-45
2022/03/27 01:29:08;;;;;;;26.50;13.83;;;5.10;76.10;;;;;;5063020;28;20475;-45
2022/03/27 01:31:35;;;;;;;33.33;14.10;;;5.10;76.20;;;;;;5062648;28;20495;-45
2022/03/27 01:34:03;;;;;;;29.90;15.03;;;5.20;76.60;;;;;;5061329;28;20493;-45
2022/03/27 01:36:34;;;;;;;24.93;14.20;;;5.20;76.30;;;;;;5060090;28;21215;-45
2022/03/27 01:39:05;;;;;;;26.93;14.37;;;5.20;77.40;;;;;;5058666;28;21731;-45
2022/03/27 01:41:32;;;;;;;30.17;13.80;;;5.20;76.00;;;;;;5062761;28;20560;-45
2022/03/27 01:43:59;;;;;;;27.53;14.27;;;5.00;74.70;;;;;;5060827;28;20613;-45
2022/03/27 01:46:26;;;;;;;30.90;15.80;;;4.80;74.30;;;;;;5062079;28;20984;-45
2022/03/27 01:48:53;;;;;;;23.23;12.40;;;4.70;74.20;;;;;;5062780;28;20489;-49
2022/03/27 01:51:20;;;;;;;37.10;14.83;;;4.60;74.30;;;;;;5062548;28;20477;-45
2022/03/27 01:53:47;;;;;;;35.07;13.17;;;4.30;74.70;;;;;;5057198;28;20489;-45
2022/03/27 01:56:15;;;;;;;27.77;13.60;;;4.20;76.00;;;;;;5061759;28;20482;-44
2022/03/27 01:58:43;;;;;;;29.70;15.23;;;4.00;77.70;;;;;;5062302;28;20483;-45
2022/03/27 02:01:10;;;;;;;35.57;16.00;;;4.00;78.00;;;;;;5059857;28;20560;-45
2022/03/27 02:03:37;;;;;;;30.47;14.27;;;3.90;78.80;;;;;;5061089;28;20502;-45
2022/03/27 02:06:05;;;;;;;30.97;13.80;;;3.90;78.80;;;;;;5061105;28;20485;-45
2022/03/27 02:08:32;;;;;;;35.57;15.93;;;3.90;79.20;;;;;;5060269;28;20869;-45
2022/03/27 02:10:58;;;;;;;29.70;15.13;;;3.90;80.20;;;;;;5061863;28;20474;-44
2022/03/27 02:13:27;;;;;;;28.90;14.67;;;4.00;79.80;;;;;;5060291;28;20484;-45
2022/03/27 02:15:57;;;;;;;33.33;14.33;;;4.10;78.30;;;;;;5062643;28;20491;-44
2022/03/27 02:18:24;;;;;;;26.87;14.00;;;4.20;77.50;;;;;;5033912;28;20817;-45
2022/03/27 02:20:51;;;;;;;27.50;14.10;;;4.20;77.20;;;;;;5034415;28;20543;-45
2022/03/27 02:23:18;;;;;;;35.70;15.93;;;4.20;77.00;;;;;;5057184;28;20485;-44
2022/03/27 02:25:45;;;;;;;32.57;15.00;;;4.30;76.90;;;;;;5050821;28;20481;-45
2022/03/27 02:28:11;;;;;;;27.33;14.33;;;4.30;77.00;;;;;;5061454;28;20512;-44
2022/03/27 02:30:39;;;;;;;39.43;15.23;;;4.40;76.90;;;;;;5061904;28;20478;-45
2022/03/27 02:33:06;;;;;;;24.07;12.70;;;4.40;76.70;;;;;;5060704;28;21003;-45
2022/03/27 02:35:33;;;;;;;23.53;13.17;;;4.50;76.70;;;;;;5061946;28;20485;-45
2022/03/27 02:38:00;;;;;;;31.70;13.97;;;4.50;76.50;;;;;;5063238;28;20474;-44
2022/03/27 02:40:27;;;;;;;30.97;14.37;;;4.50;75.50;;;;;;5058282;28;20484;-45
2022/03/27 02:42:54;;;;;;;25.70;14.93;;;4.40;75.60;;;;;;5062848;28;20981;-45
2022/03/27 02:45:21;;;;;;;31.03;14.60;;;4.00;75.50;;;;;;5059605;28;20480;-44
2022/03/27 02:47:49;;;;;;;25.97;12.70;;;3.70;75.70;;;;;;5061306;28;20478;-44
2022/03/27 02:50:15;;;;;;;24.97;12.97;;;3.50;76.50;;;;;;5056966;28;20502;-45
2022/03/27 02:52:42;;;;;;;34.73;14.03;;;3.30;79.00;;;;;;5051629;28;20479;-44
2022/03/27 02:55:10;;;;;;;24.53;13.00;;;3.30;80.40;;;;;;5056666;28;20561;-45
2022/03/27 02:57:37;;;;;;;27.40;14.60;;;3.20;80.80;;;;;;5042959;28;20476;-44
2022/03/27 03:00:06;;;;;;;25.67;13.40;;;3.20;82.00;;;;;;5063133;28;20615;-44
2022/03/27 03:02:33;;;;;;;25.27;12.87;;;3.30;81.40;;;;;;5061859;28;20555;-45
2022/03/27 03:05:02;;;;;;;24.83;13.47;;;3.50;80.50;;;;;;5059092;28;20497;-44
2022/03/27 03:07:29;;;;;;;35.40;13.83;;;3.60;79.80;;;;;;5060202;28;20473;-44
2022/03/27 03:09:56;;;;;;;28.40;14.30;;;3.70;79.00;;;;;;5062486;28;20471;-44
2022/03/27 03:12:23;;;;;;;28.83;11.87;;;3.80;78.40;;;;;;5057213;28;20474;-45
2022/03/27 03:14:55;;;;;;;25.03;14.17;;;3.80;78.10;;;;;;5062980;28;20472;-44
2022/03/27 03:17:21;;;;;;;23.60;13.20;;;3.80;77.60;;;;;;5063384;28;20476;-44
2022/03/27 03:19:49;;;;;;;21.70;11.43;;;3.90;77.10;;;;;;5064525;28;20490;-44
2022/03/27 03:22:17;;;;;;;23.33;11.93;;;3.90;77.20;;;;;;5063507;28;21054;-44
2022/03/27 03:24:44;;;;;;;18.43;10.53;;;3.90;77.20;;;;;;5063197;28;20474;-44
2022/03/27 03:27:11;;;;;;;22.07;13.33;;;4.00;77.50;;;;;;5069175;28;20527;-44
2022/03/27 03:29:38;;;;;;;22.20;14.00;;;4.00;78.10;;;;;;5064119;28;20512;-44
2022/03/27 03:32:05;;;;;;;25.47;12.53;;;4.00;78.10;;;;;;5063489;28;20913;-44
2022/03/27 03:34:32;;;;;;;37.03;13.10;;;3.60;76.60;;;;;;5062919;28;20504;-44
2022/03/27 03:36:59;;;;;;;21.37;12.37;;;3.40;77.00;;;;;;5071413;28;20536;-44
2022/03/27 03:39:27;;;;;;;23.90;13.43;;;3.20;77.70;;;;;;5054498;28;20488;-44
2022/03/27 03:41:54;;;;;;;53.13;14.43;;;3.00;79.00;;;;;;5064601;28;20485;-44
2022/03/27 03:44:20;;;;;;;35.93;15.07;;;2.90;80.30;;;;;;5060019;28;20486;-44
2022/03/27 03:46:48;;;;;;;26.03;13.57;;;2.80;81.00;;;;;;5069416;28;20470;-44
2022/03/27 03:49:14;;;;;;;49.30;14.23;;;2.80;81.80;;;;;;5063831;28;21177;-44
2022/03/27 03:51:41;;;;;;;26.47;13.80;;;2.90;81.80;;;;;;5064130;28;20512;-44
2022/03/27 03:54:08;;;;;;;27.67;15.50;;;3.00;81.30;;;;;;5062411;28;20506;-44
2022/03/27 03:56:38;;;;;;;20.57;12.57;;;3.20;80.40;;;;;;5063919;28;20486;-44
2022/03/27 03:59:04;;;;;;;40.43;14.53;;;3.20;79.60;;;;;;5052346;28;20519;-44
2022/03/27 04:01:31;;;;;;;23.97;12.37;;;3.30;78.70;;;;;;5058833;28;20544;-44
2022/03/27 04:03:58;;;;;;;30.50;12.93;;;3.30;78.00;;;;;;5063161;28;20543;-43
2022/03/27 04:06:24;;;;;;;24.63;11.97;;;3.40;77.50;;;;;;5063672;28;20477;-44
2022/03/27 04:08:51;;;;;;;24.90;12.73;;;3.50;77.20;;;;;;5064677;28;22035;-43
2022/03/27 04:11:18;;;;;;;30.90;12.80;;;3.50;77.00;;;;;;5062141;28;20493;-44
2022/03/27 04:13:46;;;;;;;21.83;11.63;;;3.50;77.10;;;;;;5063119;28;20502;-43
2022/03/27 04:16:13;;;;;;;28.60;12.93;;;3.50;77.00;;;;;;5064017;28;20474;-43
2022/03/27 04:18:40;;;;;;;33.33;13.47;;;3.50;77.00;;;;;;5063429;28;20475;-44
2022/03/27 04:21:09;;;;;;;23.63;12.90;;;3.60;77.30;;;;;;5061473;28;20524;-44
2022/03/27 04:23:36;;;;;;;19.70;10.70;;;3.50;77.40;;;;;;5062243;28;21236;-43
2022/03/27 04:26:05;;;;;;;35.97;12.80;;;3.60;77.10;;;;;;5063256;28;20854;-43
2022/03/27 04:28:32;;;;;;;27.93;12.80;;;3.50;77.40;;;;;;5064581;28;20491;-43
2022/03/27 04:31:00;;;;;;;23.57;12.83;;;3.50;77.20;;;;;;5062946;28;20477;-44
2022/03/27 04:33:26;;;;;;;26.53;12.13;;;3.10;77.00;;;;;;5061791;28;20499;-44
2022/03/27 04:35:53;;;;;;;22.20;11.87;;;3.00;77.20;;;;;;5064794;28;21012;-44
2022/03/27 04:38:20;;;;;;;18.73;10.53;;;3.00;77.20;;;;;;5063096;28;20933;-45
2022/03/27 04:40:47;;;;;;;31.00;13.60;;;3.10;77.10;;;;;;5063626;28;20486;-44
2022/03/27 04:43:14;;;;;;;27.83;12.13;;;3.10;77.40;;;;;;5061742;28;20562;-45
2022/03/27 04:45:40;;;;;;;26.07;12.93;;;3.10;77.40;;;;;;5067548;28;20513;-45
2022/03/27 04:48:09;;;;;;;32.23;12.40;;;3.10;77.60;;;;;;5062738;28;21314;-45
2022/03/27 04:50:35;;;;;;;19.70;11.40;;;2.90;77.20;;;;;;5062701;28;20474;-45
2022/03/27 04:53:02;;;;;;;19.40;11.57;;;2.70;77.70;;;;;;5063188;28;20486;-44
2022/03/27 04:55:29;;;;;;;33.97;14.10;;;2.60;79.60;;;;;;5062237;28;20534;-45
2022/03/27 04:57:56;;;;;;;24.23;14.07;;;2.50;81.10;;;;;;5063490;28;20792;-44
2022/03/27 05:00:23;;;;;;;26.67;13.10;;;2.50;81.40;;;;;;5065806;28;20535;-46
2022/03/27 05:02:50;;;;;;;27.93;13.17;;;2.60;81.60;;;;;;5062509;28;20484;-44
2022/03/27 05:05:18;;;;;;;25.33;13.27;;;2.50;82.10;;;;;;5059464;28;21538;-44
2022/03/27 05:07:45;;;;;;;23.87;11.17;;;2.60;82.30;;;;;;5062782;28;20478;-44
2022/03/27 05:10:14;;;;;;;29.00;13.77;;;2.70;81.30;;;;;;5062021;28;20658;-44
2022/03/27 05:12:41;;;;;;;21.27;13.00;;;2.70;80.70;;;;;;5063057;28;20474;-45
2022/03/27 05:15:10;;;;;;;27.27;13.23;;;2.70;79.90;;;;;;5060741;28;20485;-45
2022/03/27 05:17:47;;;;;;;19.77;12.60;;;2.70;79.00;;;;;;5061367;28;20597;-45
2022/03/27 05:20:14;;;;;;;23.90;11.83;;;2.70;78.80;;;;;;5056088;28;20568;-45
2022/03/27 05:22:43;;;;;;;27.00;13.27;;;2.80;78.30;;;;;;5060113;28;21006;-45
2022/03/27 05:25:11;;;;;;;23.13;11.90;;;2.80;78.40;;;;;;5060086;28;20582;-45
2022/03/27 05:27:43;;;;;;;24.50;11.93;;;2.80;78.50;;;;;;5062838;28;20478;-45
2022/03/27 05:30:11;;;;;;;29.80;11.53;;;2.90;78.30;;;;;;5066671;28;20487;-46
2022/03/27 05:32:38;;;;;;;31.57;13.33;;;2.90;78.50;;;;;;5062485;28;20558;-45
2022/03/27 05:35:06;;;;;;;28.67;13.87;;;3.00;78.70;;;;;;5056043;28;20511;-45
2022/03/27 05:37:36;;;;;;;38.53;13.87;;;3.10;78.40;;;;;;5061899;28;20479;-45
2022/03/27 05:40:05;;;;;;;27.33;14.27;;;3.10;78.30;;;;;;5060336;28;20473;-44
2022/03/27 05:42:32;;;;;;;40.70;13.43;;;3.20;78.00;;;;;;5034123;28;20479;-44
2022/03/27 05:44:59;;;;;;;22.60;12.30;;;3.20;77.70;;;;;;5061094;28;20827;-45
2022/03/27 05:47:26;;;;;;;23.00;11.77;;;3.20;77.40;;;;;;5059860;28;20534;-44
2022/03/27 05:49:53;;;;;;;24.00;12.00;;;3.20;77.20;;;;;;5060864;28;20762;-44
2022/03/27 05:52:20;;;;;;;22.07;11.50;;;3.20;76.90;;;;;;5062400;28;20988;-44
2022/03/27 05:54:46;;;;;;;24.27;12.50;;;3.30;77.30;;;;;;5062738;28;21033;-44
2022/03/27 05:57:15;;;;;;;23.53;11.47;;;3.30;77.90;;;;;;5061847;28;20519;-45
2022/03/27 05:59:41;;;;;;;22.93;11.10;;;3.30;77.60;;;;;;5061759;28;21067;-45
2022/03/27 06:02:08;;;;;;;24.20;12.00;;;3.30;77.20;;;;;;5061403;28;20483;-45
2022/03/27 06:04:35;;;;;;;22.67;12.83;;;3.40;77.70;;;;;;5061287;28;20483;-45
2022/03/27 06:07:01;;;;;;;23.47;13.23;;;3.40;78.10;;;;;;5061996;28;20833;-45
2022/03/27 06:09:28;;;;;;;17.70;11.60;;;3.40;78.00;;;;;;5049612;28;20476;-44
2022/03/27 06:11:55;;;;;;;20.33;11.90;;;3.50;78.50;;;;;;5050222;28;20480;-45
2022/03/27 06:14:23;;;;;;;29.60;13.40;;;3.60;80.10;;;;;;5060480;28;20483;-45
2022/03/27 06:16:50;;;;;;;20.60;11.60;;;3.70;79.10;;;;;;5062250;28;20482;-45
2022/03/27 06:19:17;;;;;;;28.10;11.83;;;3.70;77.60;;;;;;5061094;28;20478;-44
2022/03/27 06:21:45;;;;;;;18.97;11.63;;;3.50;77.10;;;;;;5058037;28;20538;-45
2022/03/27 06:24:12;;;;;;;25.67;12.50;;;3.60;78.30;;;;;;5060203;28;21004;-45
2022/03/27 06:26:39;;;;;;;36.17;15.60;;;4.40;79.40;;;;;;5061949;28;20486;-45
2022/03/27 06:29:05;;;;;;;22.43;13.20;;;5.00;78.80;;;;;;5061887;28;20501;-45
2022/03/27 06:31:33;;;;;;;27.43;14.00;;;5.70;78.50;;;;;;5062557;28;20539;-44
2022/03/27 06:34:00;;;;;;;20.83;12.87;;;7.00;77.40;;;;;;5060436;28;20486;-45
2022/03/27 06:36:27;;;;;;;18.70;12.43;;;8.00;77.10;;;;;;5060396;28;20487;-45
2022/03/27 06:38:53;;;;;;;20.13;13.53;;;8.90;74.80;;;;;;5061610;28;20499;-45
2022/03/27 06:41:20;;;;;;;31.57;14.97;;;10.30;72.10;;;;;;5067015;28;20483;-45
2022/03/27 06:43:47;;;;;;;28.60;14.17;;;10.30;72.60;;;;;;5060721;28;20510;-46
2022/03/27 06:46:16;;;;;;;26.40;16.70;;;11.40;71.90;;;;;;5048364;28;20477;-46
2022/03/27 06:48:45;;;;;;;25.70;15.67;;;13.40;69.80;;;;;;5051626;28;20667;-46
2022/03/27 06:51:11;;;;;;;25.00;15.53;;;13.40;70.20;;;;;;5052261;28;20478;-47
2022/03/27 06:53:39;;;;;;;24.80;15.77;;;14.60;69.10;;;;;;5064948;28;20625;-46
2022/03/27 06:56:06;;;;;;;26.10;15.43;;;16.10;66.50;;;;;;5054842;28;20547;-46
2022/03/27 06:58:33;;;;;;;23.10;15.03;;;16.10;66.90;;;;;;5053294;28;20474;-47
2022/03/27 07:03:47;;;;;;;22.33;15.80;;;17.50;65.40;;;;;;5059286;28;20534;-47
2022/03/27 07:06:16;;;;;;;25.00;16.27;;;18.20;63.90;;;;;;5066404;28;20857;-48
2022/03/27 07:08:42;;;;;;;31.30;16.07;;;19.20;62.10;;;;;;5066564;28;20504;-47
2022/03/27 07:11:09;;;;;;;27.10;16.40;;;19.20;63.30;;;;;;5062812;28;20482;-47
2022/03/27 07:13:36;;;;;;;25.73;16.83;;;19.70;61.80;;;;;;5064794;28;20598;-47
2022/03/27 07:16:03;;;;;;;35.90;16.13;;;20.50;60.40;;;;;;5064669;28;20955;-47
2022/03/27 07:18:29;;;;;;;22.93;16.20;;;20.50;60.90;;;;;;5064957;28;20820;-47
2022/03/27 07:20:59;;;;;;;22.20;14.50;;;20.80;60.70;;;;;;5064659;28;20576;-47
2022/03/27 07:23:26;;;;;;;26.17;15.57;;;21.00;60.20;;;;;;5069649;28;20488;-47
2022/03/27 07:25:55;;;;;;;21.43;15.70;;;21.20;60.60;;;;;;5068548;28;20491;-48
2022/03/27 07:28:22;;;;;;;22.07;16.57;;;21.50;60.20;;;;;;5063773;28;20563;-48
2022/03/27 07:30:49;;;;;;;22.00;14.77;;;21.80;59.40;;;;;;5064836;28;20547;-45
2022/03/27 07:33:17;;;;;;;24.50;16.00;;;21.80;60.00;;;;;;5063053;28;20505;-45
2022/03/27 07:35:45;;;;;;;21.57;16.30;;;22.00;59.60;;;;;;5065866;28;20885;-48
2022/03/27 07:38:14;;;;;;;25.20;16.13;;;22.10;58.70;;;;;;5064968;28;20574;-48
2022/03/27 07:40:41;;;;;;;22.57;16.10;;;22.10;59.30;;;;;;5037232;28;20471;-48
2022/03/27 07:43:08;;;;;;;26.17;17.13;;;22.00;59.50;;;;;;5063222;28;21117;-45
2022/03/27 07:45:36;;;;;;;28.43;15.67;;;21.60;59.00;;;;;;5062207;28;20497;-46
2022/03/27 07:48:04;;;;;;;22.07;14.57;;;21.60;59.80;;;;;;5063124;28;20532;-45
2022/03/27 07:50:31;;;;;;;21.87;15.57;;;21.40;60.60;;;;;;5065071;28;20532;-49
2022/03/27 07:52:59;;;;;;;24.77;15.03;;;21.00;59.90;;;;;;5064540;28;20752;-47
2022/03/27 07:55:27;;;;;;;26.77;16.20;;;20.90;59.90;;;;;;5061762;28;20489;-48
2022/03/27 07:57:53;;;;;;;20.73;13.03;;;20.80;60.80;;;;;;5066995;28;20536;-45
2022/03/27 08:00:20;;;;;;;26.80;15.93;;;20.30;59.20;;;;;;5063266;28;20481;-46
2022/03/27 08:02:47;;;;;;;20.93;14.90;;;20.20;60.00;;;;;;5062173;28;20536;-46
2022/03/27 08:05:14;;;;;;;21.90;14.13;;;20.00;60.20;;;;;;5061705;28;20541;-50
2022/03/27 08:07:42;;;;;;;29.70;15.60;;;19.60;61.50;;;;;;5065442;28;20470;-46
2022/03/27 08:10:10;;;;;;;26.03;14.80;;;19.60;61.80;;;;;;5064047;28;20471;-46
2022/03/27 08:12:38;;;;;;;22.03;15.13;;;19.50;61.80;;;;;;5052727;28;20973;-47
2022/03/27 08:15:05;;;;;;;18.93;12.10;;;19.30;62.40;;;;;;5059532;28;20483;-48
2022/03/27 08:17:32;;;;;;;20.80;13.63;;;19.20;62.10;;;;;;5064083;28;20483;-48
2022/03/27 08:19:59;;;;;;;22.93;13.90;;;;;;;;;;5062763;28;20475;-48
2022/03/27 08:22:26;;;;;;;18.53;13.83;;;19.00;62.10;;;;;;5063761;28;20479;-48
2022/03/27 08:24:53;;;;;;;21.30;15.43;;;19.00;63.80;;;;;;5061871;28;20478;-48
2022/03/27 08:27:20;;;;;;;27.67;14.40;;;;;;;;;;5053802;28;20972;-48
2022/03/27 08:29:48;;;;;;;19.37;14.60;;;19.00;63.70;;;;;;5063365;28;20861;-48
2022/03/27 08:32:17;;;;;;;25.60;14.07;;;19.30;65.60;;;;;;5061273;28;20988;-53
2022/03/27 08:34:45;;;;;;;21.23;13.87;;;19.40;64.20;;;;;;5064937;28;20506;-49
2022/03/27 08:37:13;;;;;;;21.90;13.37;;;19.40;65.10;;;;;;5063386;28;20479;-49
2022/03/27 08:39:44;;;;;;;23.03;15.13;;;19.50;63.10;;;;;;5063553;28;20503;-49
2022/03/27 08:42:12;;;;;;;36.83;14.23;;;19.60;63.00;;;;;;5062649;28;20475;-48
2022/03/27 08:44:39;;;;;;;22.63;13.70;;;19.60;63.20;;;;;;5061568;28;20480;-48
2022/03/27 08:47:15;;;;;;;23.43;16.30;;;19.50;62.20;;;;;;5062961;28;20625;-48
2022/03/27 08:49:49;;;;;;;23.63;13.40;;;19.60;62.30;;;;;;5063177;28;20466;-48
2022/03/27 08:52:34;;;;;;;24.37;13.93;;;19.60;60.50;;;;;;5034933;28;20856;-48
2022/03/27 08:55:04;;;;;;;28.17;14.30;;;19.60;61.60;;;;;;5059919;28;20875;-48
2022/03/27 08:57:44;;;;;;;27.53;12.47;;;19.70;61.00;;;;;;5062163;28;21046;-49
2022/03/27 09:00:13;;;;;;;22.33;13.03;;;19.70;59.60;;;;;;5058669;28;20495;-46
2022/03/27 09:02:41;;;;;;;19.03;14.10;;;19.80;59.80;;;;;;5062527;28;20547;-47
2022/03/27 09:05:09;;;;;;;24.00;13.70;;;19.90;59.90;;;;;;5060393;28;20478;-47
2022/03/27 09:07:36;;;;;;;23.77;13.07;;;20.00;59.70;;;;;;5070433;28;20482;-47
2022/03/27 09:10:08;;;;;;;18.00;12.73;;;20.20;59.90;;;;;;5062753;28;20475;-46
2022/03/27 09:12:35;;;;;;;36.83;13.50;;;20.30;59.10;;;;;;5063165;28;20837;-47
2022/03/27 09:15:03;;;;;;;20.13;12.27;;;20.30;58.90;;;;;;5058223;28;20492;-47
2022/03/27 09:17:30;;;;;;;20.90;12.10;;;20.40;59.50;;;;;;5055288;28;20482;-47
2022/03/27 09:19:58;;;;;;;30.30;14.30;;;20.50;59.70;;;;;;5060590;28;20968;-47
2022/03/27 09:22:31;;;;;;;19.23;14.27;;;20.60;59.40;;;;;;5063133;28;20968;-47
2022/03/27 09:25:00;;;;;;;20.37;12.23;;;20.70;59.60;;;;;;5064636;28;20577;-47
2022/03/27 09:27:30;;;;;;;24.40;13.00;;;20.90;60.10;;;;;;5063304;28;21227;-47
2022/03/27 09:30:01;;;;;;;17.73;11.57;;;21.10;60.40;;;;;;5061681;28;20578;-47
2022/03/27 09:32:29;;;;;;;19.57;12.13;;;21.30;58.00;;;;;;5066319;28;20483;-47
2022/03/27 09:35:02;;;;;;;21.73;13.60;;;21.50;59.80;;;;;;5050538;28;20475;-47
2022/03/27 09:37:30;;;;;;;22.50;13.87;;;21.50;57.00;;;;;;5061193;28;20483;-47
2022/03/27 09:39:57;;;;;;;33.87;12.87;;;21.70;58.10;;;;;;5061003;28;20576;-47
2022/03/27 09:42:25;;;;;;;24.60;12.10;;;21.70;55.90;;;;;;5062633;28;20564;-47
2022/03/27 09:45:13;;;;;;;31.67;13.90;;;21.70;57.60;;;;;;5060822;28;20544;-47
2022/03/27 09:47:41;;;;;;;20.43;8.50;;;21.30;55.20;;;;;;5059515;28;21199;-47
2022/03/27 09:50:28;;;;;;;25.73;11.47;;;21.10;55.10;;;;;;5050675;28;20497;-47
2022/03/27 09:53:10;;;;;;;17.90;10.83;;;21.10;53.60;;;;;;5061439;28;20471;-47
2022/03/27 09:55:36;;;;;;;22.83;11.80;;;21.10;53.30;;;;;;5060590;28;20479;-48
2022/03/27 09:58:06;;;;;;;21.93;12.23;;;21.10;54.10;;;;;;5060932;28;20490;-47
2022/03/27 10:00:33;;;;;;;22.30;14.43;;;21.10;53.80;;;;;;5064491;28;20562;-51
2022/03/27 10:03:10;;;;;;;32.43;11.93;;;21.10;53.40;;;;;;5062018;28;21060;-47
2022/03/27 10:05:38;;;;;;;19.13;11.50;;;21.10;54.50;;;;;;5061304;28;21035;-48
2022/03/27 10:08:06;;;;;;;25.30;11.37;;;21.30;54.00;;;;;;5061840;28;20871;-47
2022/03/27 10:10:33;;;;;;;26.90;11.00;;;21.00;52.50;;;;;;5058858;28;20880;-50
2022/03/27 10:13:00;;;;;;;18.40;11.20;;;21.00;53.50;;;;;;5061086;28;20483;-47
2022/03/27 10:15:28;;;;;;;23.83;12.00;;;21.10;53.80;;;;;;5059301;28;20482;-47
2022/03/27 10:17:59;;;;;;;17.93;11.13;;;21.30;53.80;;;;;;5061144;28;20605;-48
2022/03/27 10:20:29;;;;;;;20.80;12.30;;;21.30;53.70;;;;;;5059542;28;20479;-48
2022/03/27 10:23:03;;;;;;;17.47;11.03;;;21.40;53.30;;;;;;5061327;28;20842;-48
2022/03/27 10:25:36;;;;;;;20.23;10.70;;;21.40;53.80;;;;;;5061086;28;20484;-48
2022/03/27 10:28:04;;;;;;;15.83;10.90;;;21.50;53.40;;;;;;5060673;28;20485;-48
2022/03/27 10:30:31;;;;;;;24.20;11.33;;;21.60;52.20;;;;;;5061181;28;20502;-47
2022/03/27 10:33:00;;;;;;;18.73;10.90;;;21.60;52.60;;;;;;5061466;28;20489;-48
2022/03/27 10:35:35;;;;;;;18.43;9.20;;;21.60;52.40;;;;;;5051275;28;21192;-48
2022/03/27 10:38:18;;;;;;;15.60;8.30;;;21.60;52.80;;;;;;5060656;28;20477;-48
2022/03/27 10:40:52;;;;;;;21.00;10.53;;;21.40;51.00;;;;;;5059438;28;20474;-48
2022/03/27 10:43:27;;;;;;;12.40;8.63;;;21.40;51.20;;;;;;5030226;28;20468;-47
2022/03/27 10:46:13;;;;;;;18.17;9.97;;;21.40;51.60;;;;;;5039677;28;20531;-48
2022/03/27 10:48:42;;;;;;;13.13;7.77;;;21.50;52.30;;;;;;5059050;28;21022;-48
2022/03/27 10:51:09;;;;;;;15.77;9.37;;;21.30;49.40;;;;;;5052761;28;20521;-48
2022/03/27 10:53:37;;;;;;;20.67;7.57;;;21.40;49.30;;;;;;5054181;28;20487;-48
2022/03/27 10:56:05;;;;;;;14.60;8.70;;;21.40;51.70;;;;;;5037954;28;20614;-47
2022/03/27 10:58:41;;;;;;;8.50;6.00;;;21.60;51.70;;;;;;5041643;28;20985;-48
2022/03/27 11:01:29;;;;;;;22.33;8.50;;;21.40;48.60;;;;;;5043605;28;20489;-48
2022/03/27 11:04:07;;;;;;;24.93;8.63;;;21.70;49.40;;;;;;5039479;28;20480;-48
2022/03/27 11:06:36;;;;;;;15.23;6.20;;;21.70;49.80;;;;;;5045638;28;20499;-48
2022/03/27 11:09:05;;;;;;;9.60;7.00;;;21.80;51.90;;;;;;5054559;28;20471;-47
2022/03/27 11:12:06;;;;;;;9.80;7.03;;;21.80;52.30;;;;;;5046247;28;20510;-48
2022/03/27 11:15:00;;;;;;;17.00;6.83;;;22.00;48.40;;;;;;5023891;28;20479;-48
2022/03/27 11:18:09;;;;;;;8.37;5.80;;;22.10;47.60;;;;;;5042208;28;20815;-48
2022/03/27 11:20:56;;;;;;;16.13;8.57;;;22.20;49.30;;;;;;5052201;28;20510;-48
2022/03/27 11:23:35;;;;;;;9.67;6.50;;;22.20;49.20;;;;;;5040573;28;20485;-47
2022/03/27 11:26:03;;;;;;;17.43;8.13;;;22.30;47.00;;;;;;5033471;28;20494;-47
2022/03/27 11:28:56;;;;;;;14.87;6.90;;;22.30;46.60;;;;;;5043207;28;20486;-47
2022/03/27 11:31:31;;;;;;;14.43;6.00;;;22.50;46.20;;;;;;5008849;28;20476;-48
2022/03/27 11:34:17;;;;;;;9.23;6.80;;;22.50;46.70;;;;;;5040844;28;20919;-47
2022/03/27 11:36:48;;;;;;;11.30;6.00;;;22.60;46.80;;;;;;5051797;28;20486;-47
2022/03/27 11:39:32;;;;;;;7.20;4.50;;;22.50;42.90;;;;;;5048090;28;20479;-47
2022/03/27 11:42:24;;;;;;;9.13;5.67;;;22.20;43.80;;;;;;5063454;28;20562;-47
2022/03/27 11:45:09;;;;;;;6.67;4.73;;;22.30;46.30;;;;;;5061685;28;21301;-47
2022/03/27 11:47:38;;;;;;;11.30;6.77;;;22.40;46.50;;;;;;5052106;28;20479;-47
2022/03/27 11:50:05;;;;;;;7.07;5.20;;;22.30;44.70;;;;;;5062750;28;20566;-47
2022/03/27 11:52:35;;;;;;;8.07;5.23;;;22.30;44.10;;;;;;5063163;28;20493;-48
2022/03/27 11:55:07;;;;;;;8.90;6.17;;;22.10;45.50;;;;;;5062291;28;20590;-47
2022/03/27 11:57:44;;;;;;;18.33;5.00;;;22.40;48.40;;;;;;5060670;28;20485;-47
2022/03/27 12:00:13;;;;;;;8.43;5.20;;;22.10;44.30;;;;;;5060261;28;21001;-47
2022/03/27 12:02:42;;;;;;;10.80;4.80;;;22.40;44.70;;;;;;5061173;28;20513;-48
2022/03/27 12:05:10;;;;;;;9.73;5.03;;;22.40;42.30;;;;;;5062651;28;20606;-48
2022/03/27 12:07:52;;;;;;;10.73;5.37;;;22.60;45.10;;;;;;5063639;28;20815;-48
2022/03/27 12:10:19;;;;;;;7.53;5.67;;;22.60;43.70;;;;;;5066448;28;20530;-50
2022/03/27 12:13:00;;;;;;;10.23;6.80;;;22.60;45.30;;;;;;5063829;28;20498;-48
2022/03/27 12:15:38;;;;;;;12.33;5.20;;;22.70;44.00;;;;;;5032960;28;20486;-48
2022/03/27 12:18:05;;;;;;;14.30;6.50;;;22.70;44.30;;;;;;5062374;28;20493;-48
2022/03/27 12:20:42;;;;;;;9.03;3.20;;;22.60;42.80;;;;;;5063045;28;20486;-48
2022/03/27 12:23:23;;;;;;;5.40;4.90;;;22.70;43.60;;;;;;5059502;28;20471;-48
2022/03/27 12:26:04;;;;;;;21.93;6.80;;;22.60;43.60;;;;;;5062377;28;21197;-48
2022/03/27 12:31:27;;;;;;;7.43;6.00;;;22.60;42.80;;;;;;5051998;28;20497;-48
2022/03/27 12:33:56;;;;;;;9.23;6.20;;;22.70;43.80;;;;;;5065908;28;20478;-48
2022/03/27 12:36:23;;;;;;;15.23;6.30;;;23.20;47.70;;;;;;5046549;28;20471;-48
2022/03/27 12:38:52;;;;;;;17.30;6.37;;;23.50;45.00;;;;;;5050413;28;20490;-48
2022/03/27 12:41:37;;;;;;;9.57;6.33;;;23.50;43.40;;;;;;5051823;28;20491;-48
2022/03/27 12:44:05;;;;;;;7.03;5.70;;;23.40;46.50;;;;;;5035861;28;20478;-48
2022/03/27 12:46:31;;;;;;;7.43;5.47;;;23.40;44.00;;;;;;5065383;28;20493;-48
2022/03/27 12:49:00;;;;;;;19.37;5.93;;;23.50;46.00;;;;;;5069012;28;21074;-48
2022/03/27 12:51:26;;;;;;;11.37;6.90;;;23.50;46.00;;;;;;5068391;28;20527;-48
2022/03/27 12:54:08;;;;;;;11.10;5.60;;;23.80;45.00;;;;;;5064487;28;20867;-48